createdAt,value
2019-03-03T00:00:45.239Z,27.20
2019-03-03T00:01:22.853Z,27.07
2019-03-03T00:01:55.912Z,26.42
2019-03-03T00:02:28.934Z,26.60
2019-03-03T00:03:01.916Z,26.57
2019-03-03T00:03:34.836Z,27.00
2019-03-03T00:04:07.898Z,27.67
2019-03-03T00:04:40.772Z,27.50
2019-03-03T00:05:13.939Z,26.48
2019-03-03T00:05:46.943Z,27.37
2019-03-03T00:06:19.937Z,26.80
2019-03-03T00:06:52.820Z,26.73
2019-03-03T00:07:25.729Z,27.00
2019-03-03T00:07:58.651Z,27.13
2019-03-03T00:08:31.584Z,26.80
2019-03-03T00:09:06.723Z,27.05
2019-03-03T00:09:41.607Z,27.10
2019-03-03T00:10:14.688Z,26.80
2019-03-03T00:10:47.596Z,26.73
2019-03-03T00:11:20.504Z,27.07
2019-03-03T00:11:53.504Z,27.00
2019-03-03T00:12:26.440Z,27.25
2019-03-03T00:12:59.653Z,27.37
2019-03-03T00:13:32.707Z,27.37
2019-03-03T00:14:05.843Z,27.17
2019-03-03T00:14:38.840Z,26.70
2019-03-03T00:15:12.521Z,27.22
2019-03-03T00:15:45.640Z,27.00
2019-03-03T00:16:18.828Z,26.82
2019-03-03T00:16:51.825Z,26.65
2019-03-03T00:17:24.765Z,26.85
2019-03-03T00:17:58.668Z,27.32
2019-03-03T00:18:31.455Z,26.90
2019-03-03T00:19:15.328Z,27.15
2019-03-03T00:19:50.130Z,26.70
2019-03-03T00:20:23.112Z,27.20
2019-03-03T00:20:57.439Z,27.40
2019-03-03T00:21:30.710Z,26.95
2019-03-03T00:22:03.909Z,27.27
2019-03-03T00:22:37.003Z,27.40
2019-03-03T00:23:10.008Z,26.80
2019-03-03T00:23:42.829Z,27.32
2019-03-03T00:24:15.863Z,26.93
2019-03-03T00:24:48.912Z,27.10
2019-03-03T00:25:22.010Z,26.97
2019-03-03T00:25:54.954Z,27.20
2019-03-03T00:26:27.845Z,26.80
2019-03-03T00:27:00.859Z,27.58
2019-03-03T00:27:33.897Z,27.80
2019-03-03T00:28:06.877Z,27.20
2019-03-03T00:28:39.862Z,27.57
2019-03-03T00:29:12.884Z,27.20
2019-03-03T00:29:45.699Z,27.13
2019-03-03T00:30:20.367Z,27.75
2019-03-03T00:30:53.374Z,27.58
2019-03-03T00:31:38.587Z,27.22
2019-03-03T00:32:11.523Z,27.40
2019-03-03T00:32:44.680Z,27.42
2019-03-03T00:33:19.288Z,27.40
2019-03-03T00:33:52.281Z,27.13
2019-03-03T00:34:25.268Z,27.15
2019-03-03T00:34:58.216Z,27.60
2019-03-03T00:35:31.702Z,27.30
2019-03-03T00:36:04.764Z,27.87
2019-03-03T00:36:55.777Z,27.40
2019-03-03T00:37:36.210Z,27.13
2019-03-03T00:38:44.285Z,27.60
2019-03-03T00:39:32.842Z,27.93
2019-03-03T00:40:24.233Z,27.27
2019-03-03T00:41:26.962Z,27.67
2019-03-03T00:42:19.942Z,28.07
2019-03-03T00:43:11.585Z,27.85
2019-03-03T00:43:51.793Z,27.42
2019-03-03T00:44:31.133Z,27.35
2019-03-03T00:45:18.729Z,27.17
2019-03-03T00:46:01.096Z,27.60
2019-03-03T00:46:52.222Z,27.58
2019-03-03T00:47:48.860Z,27.52
2019-03-03T00:48:40.442Z,27.73
2019-03-03T00:49:45.400Z,27.50
2019-03-03T00:50:37.909Z,27.37
2019-03-03T00:51:19.863Z,27.10
2019-03-03T00:52:02.099Z,28.02
2019-03-03T00:52:45.318Z,27.27
2019-03-03T00:53:29.024Z,27.65
2019-03-03T00:54:21.768Z,27.15
2019-03-03T00:55:13.279Z,27.90
2019-03-03T00:56:02.935Z,27.30
2019-03-03T00:56:49.739Z,27.52
2019-03-03T00:57:57.534Z,26.95
2019-03-03T00:58:41.986Z,27.07
2019-03-03T00:59:26.922Z,27.85
2019-03-03T01:00:07.635Z,27.75
2019-03-03T01:00:52.236Z,27.70
2019-03-03T01:01:40.879Z,27.05
2019-03-03T01:02:31.535Z,27.62
2019-03-03T01:03:11.404Z,27.48
2019-03-03T01:04:04.006Z,27.80
2019-03-03T01:04:57.894Z,27.73
2019-03-03T01:05:53.483Z,28.30
2019-03-03T01:06:37.322Z,27.87
2019-03-03T01:07:42.432Z,28.10
2019-03-03T01:08:25.262Z,27.62
2019-03-03T01:09:30.708Z,27.62
2019-03-03T01:10:16.262Z,27.65
2019-03-03T01:10:56.202Z,27.80
2019-03-03T01:11:55.380Z,27.70
2019-03-03T01:12:42.075Z,27.77
2019-03-03T01:13:27.950Z,27.15
2019-03-03T01:14:09.426Z,28.27
2019-03-03T01:15:01.144Z,28.23
2019-03-03T01:15:51.652Z,28.10
2019-03-03T01:16:43.557Z,27.10
2019-03-03T01:17:25.194Z,28.27
2019-03-03T01:18:13.038Z,27.73
2019-03-03T01:19:03.333Z,27.35
2019-03-03T01:19:58.338Z,27.75
2019-03-03T01:20:50.926Z,27.55
2019-03-03T01:21:31.395Z,28.00
2019-03-03T01:22:27.536Z,27.17
2019-03-03T01:23:18.477Z,27.40
2019-03-03T01:24:02.931Z,27.42
2019-03-03T01:24:48.705Z,27.77
2019-03-03T01:25:21.726Z,27.60
2019-03-03T01:25:55.178Z,28.10
2019-03-03T01:26:28.068Z,28.02
2019-03-03T01:27:01.004Z,27.87
2019-03-03T01:27:34.027Z,27.90
2019-03-03T01:28:06.996Z,27.90
2019-03-03T01:28:40.110Z,27.62
2019-03-03T01:29:13.341Z,27.77
2019-03-03T01:29:47.070Z,27.58
2019-03-03T01:30:20.129Z,27.98
2019-03-03T01:30:53.234Z,27.80
2019-03-03T01:31:26.162Z,27.77
2019-03-03T01:31:59.203Z,27.55
2019-03-03T01:32:32.265Z,27.50
2019-03-03T01:33:05.248Z,27.60
2019-03-03T01:33:38.328Z,27.55
2019-03-03T01:34:11.304Z,27.58
2019-03-03T01:34:44.406Z,27.98
2019-03-03T01:35:17.294Z,27.15
2019-03-03T01:35:50.306Z,27.15
2019-03-03T01:36:23.304Z,27.42
2019-03-03T01:36:56.258Z,27.70
2019-03-03T01:37:29.419Z,27.07
2019-03-03T01:38:02.491Z,27.70
2019-03-03T01:38:35.550Z,27.60
2019-03-03T01:39:08.834Z,27.45
2019-03-03T01:39:42.166Z,27.70
2019-03-03T01:40:15.238Z,28.17
2019-03-03T01:40:48.363Z,27.80
2019-03-03T01:41:21.287Z,27.58
2019-03-03T01:41:54.265Z,27.87
2019-03-03T01:42:27.426Z,27.50
2019-03-03T01:43:00.403Z,27.65
2019-03-03T01:43:33.214Z,27.42
2019-03-03T01:44:06.300Z,27.37
2019-03-03T01:44:39.304Z,27.20
2019-03-03T01:45:13.090Z,28.20
2019-03-03T01:45:46.086Z,27.80
2019-03-03T01:46:19.827Z,27.52
2019-03-03T01:46:52.630Z,27.87
2019-03-03T01:47:25.666Z,27.58
2019-03-03T01:47:58.551Z,27.85
2019-03-03T01:48:31.604Z,27.67
2019-03-03T01:49:04.479Z,27.32
2019-03-03T01:49:37.556Z,27.45
2019-03-03T01:50:10.646Z,28.35
2019-03-03T01:50:43.595Z,27.93
2019-03-03T01:51:16.509Z,27.65
2019-03-03T01:51:49.614Z,27.77
2019-03-03T01:52:22.639Z,28.15
2019-03-03T01:52:55.580Z,28.27
2019-03-03T01:53:28.615Z,28.45
2019-03-03T01:54:01.802Z,27.22
2019-03-03T01:54:34.762Z,27.95
2019-03-03T01:55:10.248Z,27.67
2019-03-03T01:55:43.282Z,27.60
2019-03-03T01:56:16.334Z,27.93
2019-03-03T01:56:49.305Z,27.82
2019-03-03T01:57:22.352Z,27.42
2019-03-03T01:57:56.868Z,27.80
2019-03-03T01:58:29.706Z,27.93
2019-03-03T01:59:02.912Z,27.75
2019-03-03T01:59:35.986Z,28.47
2019-03-03T02:00:19.478Z,27.82
2019-03-03T02:00:52.541Z,28.52
2019-03-03T02:01:25.791Z,28.27
2019-03-03T02:01:58.843Z,28.23
2019-03-03T02:02:32.007Z,27.67
2019-03-03T02:03:05.660Z,28.35
2019-03-03T02:03:39.269Z,27.70
2019-03-03T02:04:12.360Z,28.23
2019-03-03T02:04:45.392Z,28.50
2019-03-03T02:05:18.454Z,28.30
2019-03-03T02:05:51.403Z,28.30
2019-03-03T02:06:24.571Z,28.15
2019-03-03T02:06:58.203Z,27.90
2019-03-03T02:07:31.167Z,28.40
2019-03-03T02:08:04.625Z,28.38
2019-03-03T02:08:37.692Z,28.75
2019-03-03T02:09:11.404Z,28.52
2019-03-03T02:09:44.999Z,28.32
2019-03-03T02:10:22.634Z,27.25
2019-03-03T02:10:56.898Z,27.90
2019-03-03T02:11:29.899Z,28.12
2019-03-03T02:12:03.029Z,28.30
2019-03-03T02:12:36.222Z,28.12
2019-03-03T02:13:09.336Z,27.67
2019-03-03T02:13:42.365Z,28.12
2019-03-03T02:14:16.271Z,27.65
2019-03-03T02:14:49.290Z,28.02
2019-03-03T02:15:22.467Z,28.15
2019-03-03T02:15:55.280Z,28.20
2019-03-03T02:16:28.260Z,28.07
2019-03-03T02:17:01.317Z,27.95
2019-03-03T02:17:34.213Z,28.23
2019-03-03T02:18:07.236Z,27.65
2019-03-03T02:18:40.232Z,27.95
2019-03-03T02:19:13.129Z,28.12
2019-03-03T02:19:46.036Z,27.95
2019-03-03T02:20:19.269Z,27.95
2019-03-03T02:20:52.160Z,27.70
2019-03-03T02:21:25.084Z,28.15
2019-03-03T02:21:58.085Z,27.62
2019-03-03T02:22:31.105Z,27.98
2019-03-03T02:23:04.231Z,28.12
2019-03-03T02:23:39.135Z,28.80
2019-03-03T02:24:12.029Z,27.62
2019-03-03T02:24:44.938Z,28.27
2019-03-03T02:25:17.988Z,28.73
2019-03-03T02:25:50.980Z,28.38
2019-03-03T02:26:23.962Z,28.60
2019-03-03T02:26:56.994Z,28.15
2019-03-03T02:27:29.894Z,28.42
2019-03-03T02:28:02.902Z,28.27
2019-03-03T02:28:35.924Z,28.25
2019-03-03T02:29:08.936Z,28.57
2019-03-03T02:29:41.831Z,28.92
2019-03-03T02:30:17.504Z,28.47
2019-03-03T02:30:50.490Z,28.70
2019-03-03T02:31:23.550Z,29.00
2019-03-03T02:31:57.555Z,29.23
2019-03-03T02:32:30.599Z,28.75
2019-03-03T02:33:03.699Z,28.62
2019-03-03T02:33:36.755Z,28.35
2019-03-03T02:34:09.753Z,28.32
2019-03-03T02:34:42.827Z,29.10
2019-03-03T02:35:16.016Z,28.80
2019-03-03T02:35:49.139Z,28.80
2019-03-03T02:36:22.063Z,28.45
2019-03-03T02:36:55.031Z,28.47
2019-03-03T02:37:28.132Z,28.62
2019-03-03T02:38:01.674Z,28.27
2019-03-03T02:38:34.743Z,28.62
2019-03-03T02:39:14.729Z,28.98
2019-03-03T02:39:47.635Z,28.75
2019-03-03T02:40:20.598Z,28.62
2019-03-03T02:40:53.737Z,28.20
2019-03-03T02:41:26.808Z,27.98
2019-03-03T02:41:59.777Z,29.12
2019-03-03T02:42:32.737Z,28.42
2019-03-03T02:43:05.929Z,28.40
2019-03-03T02:43:40.331Z,28.60
2019-03-03T02:44:13.888Z,28.80
2019-03-03T02:44:46.727Z,28.90
2019-03-03T02:45:19.903Z,28.77
2019-03-03T02:45:52.854Z,28.45
2019-03-03T02:46:25.708Z,28.83
2019-03-03T02:46:58.834Z,28.23
2019-03-03T02:47:32.584Z,28.30
2019-03-03T02:48:05.670Z,28.90
2019-03-03T02:48:38.707Z,28.55
2019-03-03T02:49:11.764Z,28.10
2019-03-03T02:49:44.738Z,28.55
2019-03-03T02:50:17.808Z,28.35
2019-03-03T02:50:50.868Z,28.83
2019-03-03T02:51:23.803Z,28.50
2019-03-03T02:51:56.723Z,28.32
2019-03-03T02:52:29.838Z,28.27
2019-03-03T02:53:03.027Z,28.35
2019-03-03T02:53:35.986Z,28.32
2019-03-03T02:54:08.856Z,29.10
2019-03-03T02:54:41.929Z,28.77
2019-03-03T02:55:14.948Z,27.85
2019-03-03T02:55:49.008Z,28.07
2019-03-03T02:56:21.998Z,29.05
2019-03-03T02:56:55.085Z,29.15
2019-03-03T02:57:28.063Z,28.45
2019-03-03T02:58:01.000Z,28.17
2019-03-03T02:58:33.997Z,28.02
2019-03-03T02:59:07.013Z,27.93
2019-03-03T02:59:40.023Z,28.23
2019-03-03T03:00:18.954Z,28.20
2019-03-03T03:00:57.346Z,28.73
2019-03-03T03:01:40.579Z,28.02
2019-03-03T03:02:33.151Z,27.98
2019-03-03T03:03:09.587Z,28.60
2019-03-03T03:03:42.573Z,28.45
2019-03-03T03:04:15.583Z,28.62
2019-03-03T03:04:48.547Z,29.05
2019-03-03T03:05:32.607Z,28.10
2019-03-03T03:06:31.353Z,28.52
2019-03-03T03:07:19.544Z,28.15
2019-03-03T03:08:05.117Z,28.27
2019-03-03T03:08:56.567Z,28.50
2019-03-03T03:09:35.614Z,28.35
2019-03-03T03:10:18.012Z,28.80
2019-03-03T03:11:22.434Z,28.57
2019-03-03T03:12:10.553Z,28.42
2019-03-03T03:13:09.669Z,28.73
2019-03-03T03:14:04.031Z,29.15
2019-03-03T03:14:45.293Z,28.40
2019-03-03T03:15:36.833Z,28.75
2019-03-03T03:16:32.504Z,28.62
2019-03-03T03:17:13.055Z,28.20
2019-03-03T03:18:08.034Z,28.35
2019-03-03T03:18:48.781Z,28.67
2019-03-03T03:19:42.349Z,28.00
2019-03-03T03:20:36.107Z,28.42
2019-03-03T03:21:24.093Z,28.60
2019-03-03T03:22:23.651Z,29.12
2019-03-03T03:23:20.669Z,28.52
2019-03-03T03:24:02.357Z,28.15
2019-03-03T03:24:57.635Z,28.85
2019-03-03T03:25:38.296Z,28.20
2019-03-03T03:26:36.619Z,29.90
2019-03-03T03:27:25.517Z,28.87
2019-03-03T03:28:15.573Z,28.80
2019-03-03T03:29:06.684Z,28.57
2019-03-03T03:30:02.487Z,28.95
2019-03-03T03:30:58.090Z,28.40
2019-03-03T03:31:38.141Z,28.77
2019-03-03T03:32:17.570Z,28.62
2019-03-03T03:32:57.586Z,28.20
2019-03-03T03:33:40.095Z,29.05
2019-03-03T03:34:17.778Z,28.73
2019-03-03T03:35:16.889Z,28.57
2019-03-03T03:35:59.038Z,28.50
2019-03-03T03:36:40.816Z,28.27
2019-03-03T03:37:33.293Z,29.25
2019-03-03T03:38:16.488Z,28.70
2019-03-03T03:39:11.564Z,28.17
2019-03-03T03:40:02.737Z,28.98
2019-03-03T03:40:45.876Z,29.27
2019-03-03T03:41:24.607Z,28.70
2019-03-03T03:42:07.631Z,28.30
2019-03-03T03:43:00.995Z,28.65
2019-03-03T03:43:52.327Z,28.45
2019-03-03T03:44:33.401Z,28.40
2019-03-03T03:45:21.541Z,28.25
2019-03-03T03:46:20.235Z,28.87
2019-03-03T03:47:02.395Z,28.92
2019-03-03T03:47:46.021Z,28.30
2019-03-03T03:48:25.146Z,28.77
2019-03-03T03:49:27.056Z,28.10
2019-03-03T03:50:19.621Z,29.70
2019-03-03T03:51:11.240Z,29.40
2019-03-03T03:51:57.622Z,28.60
2019-03-03T03:52:50.076Z,28.67
2019-03-03T03:53:29.696Z,28.73
2019-03-03T03:54:13.712Z,28.77
2019-03-03T03:55:03.895Z,28.73
2019-03-03T03:55:46.994Z,28.73
2019-03-03T03:56:30.627Z,29.12
2019-03-03T03:57:11.995Z,28.98
2019-03-03T03:58:02.523Z,29.48
2019-03-03T03:58:57.586Z,29.23
2019-03-03T03:59:45.598Z,29.52
2019-03-03T04:00:31.464Z,28.42
2019-03-03T04:01:22.893Z,28.77
2019-03-03T04:02:30.799Z,28.62
2019-03-03T04:03:24.217Z,29.82
2019-03-03T04:04:15.240Z,28.38
2019-03-03T04:05:19.892Z,29.05
2019-03-03T04:06:01.186Z,29.15
2019-03-03T04:07:12.156Z,28.70
2019-03-03T04:08:00.993Z,29.00
2019-03-03T04:08:46.082Z,29.55
2019-03-03T04:09:43.802Z,29.75
2019-03-03T04:10:41.279Z,30.08
2019-03-03T04:11:21.695Z,29.40
2019-03-03T04:12:14.364Z,29.32
2019-03-03T04:13:10.568Z,29.70
2019-03-03T04:13:50.318Z,29.77
2019-03-03T04:14:45.871Z,30.23
2019-03-03T04:15:42.004Z,30.17
2019-03-03T04:16:23.281Z,29.77
2019-03-03T04:17:31.084Z,29.82
2019-03-03T04:18:16.224Z,29.60
2019-03-03T04:18:55.476Z,30.40
2019-03-03T04:19:38.751Z,30.52
2019-03-03T04:20:28.346Z,30.43
2019-03-03T04:21:08.316Z,30.75
2019-03-03T04:22:03.537Z,30.25
2019-03-03T04:22:52.086Z,30.32
2019-03-03T04:24:00.914Z,30.52
2019-03-03T04:24:57.542Z,29.42
2019-03-03T04:25:47.430Z,30.82
2019-03-03T04:26:52.022Z,30.37
2019-03-03T04:27:47.282Z,30.60
2019-03-03T04:28:42.801Z,30.60
2019-03-03T04:29:39.354Z,31.02
2019-03-03T04:30:29.822Z,30.32
2019-03-03T04:31:11.929Z,30.80
2019-03-03T04:32:19.470Z,30.68
2019-03-03T04:33:03.631Z,30.75
2019-03-03T04:33:44.998Z,31.40
2019-03-03T04:34:33.566Z,31.55
2019-03-03T04:35:14.590Z,30.75
2019-03-03T04:35:58.752Z,31.25
2019-03-03T04:36:41.240Z,31.75
2019-03-03T04:37:39.521Z,31.20
2019-03-03T04:38:27.531Z,31.73
2019-03-03T04:39:16.266Z,31.12
2019-03-03T04:39:59.378Z,31.15
2019-03-03T04:40:46.202Z,31.35
2019-03-03T04:41:47.771Z,31.65
2019-03-03T04:42:28.394Z,31.90
2019-03-03T04:43:07.594Z,32.08
2019-03-03T04:43:53.392Z,32.15
2019-03-03T04:44:46.009Z,32.03
2019-03-03T04:45:37.432Z,31.87
2019-03-03T04:46:22.154Z,31.65
2019-03-03T04:47:02.228Z,31.42
2019-03-03T04:47:57.296Z,31.40
2019-03-03T04:48:38.985Z,31.37
2019-03-03T04:49:31.998Z,32.13
2019-03-03T04:50:15.594Z,31.77
2019-03-03T04:51:10.884Z,31.90
2019-03-03T04:51:55.166Z,31.33
2019-03-03T04:52:36.359Z,31.80
2019-03-03T04:53:29.069Z,31.60
2019-03-03T04:54:21.766Z,33.05
2019-03-03T04:55:17.400Z,32.67
2019-03-03T04:56:16.402Z,31.77
2019-03-03T04:57:18.128Z,32.30
2019-03-03T04:58:09.288Z,31.20
2019-03-03T04:58:51.956Z,32.63
2019-03-03T05:00:02.796Z,32.15
2019-03-03T05:00:44.693Z,32.00
2019-03-03T05:01:32.602Z,32.17
2019-03-03T05:02:24.102Z,31.90
2019-03-03T05:03:19.690Z,32.83
2019-03-03T05:04:11.665Z,32.50
2019-03-03T05:04:57.018Z,32.25
2019-03-03T05:05:35.227Z,32.70
2019-03-03T05:06:40.382Z,33.00
2019-03-03T05:07:35.968Z,32.80
2019-03-03T05:08:22.521Z,32.55
2019-03-03T05:09:04.621Z,33.02
2019-03-03T05:09:45.372Z,33.13
2019-03-03T05:10:30.022Z,32.08
2019-03-03T05:11:18.039Z,32.10
2019-03-03T05:12:38.986Z,32.50
2019-03-03T05:13:37.636Z,32.73
2019-03-03T05:14:19.926Z,32.55
2019-03-03T05:14:55.543Z,32.33
2019-03-03T05:15:51.199Z,32.23
2019-03-03T05:16:34.237Z,33.40
2019-03-03T05:17:15.236Z,33.20
2019-03-03T05:17:53.334Z,32.95
2019-03-03T05:18:35.968Z,32.45
2019-03-03T05:19:16.658Z,32.08
2019-03-03T05:19:53.929Z,32.15
2019-03-03T05:20:44.219Z,32.45
2019-03-03T05:21:17.271Z,32.88
2019-03-03T05:21:50.083Z,32.45
2019-03-03T05:22:23.022Z,33.53
2019-03-03T05:22:56.024Z,32.88
2019-03-03T05:23:29.121Z,33.00
2019-03-03T05:24:02.243Z,33.58
2019-03-03T05:24:35.333Z,33.10
2019-03-03T05:25:08.371Z,33.55
2019-03-03T05:25:42.951Z,33.00
2019-03-03T05:26:15.801Z,32.83
2019-03-03T05:26:50.522Z,32.65
2019-03-03T05:27:23.496Z,32.80
2019-03-03T05:27:56.595Z,32.93
2019-03-03T05:28:29.438Z,33.58
2019-03-03T05:29:02.484Z,32.60
2019-03-03T05:29:35.406Z,32.60
2019-03-03T05:30:08.652Z,33.42
2019-03-03T05:30:41.606Z,33.05
2019-03-03T05:31:14.483Z,33.25
2019-03-03T05:31:47.624Z,33.20
2019-03-03T05:32:20.530Z,32.65
2019-03-03T05:32:53.465Z,33.78
2019-03-03T05:33:26.333Z,33.35
2019-03-03T05:33:59.182Z,32.80
2019-03-03T05:34:31.965Z,33.23
2019-03-03T05:35:05.311Z,33.38
2019-03-03T05:35:38.323Z,34.05
2019-03-03T05:36:11.346Z,33.78
2019-03-03T05:36:44.341Z,32.85
2019-03-03T05:37:17.382Z,33.63
2019-03-03T05:37:50.327Z,33.70
2019-03-03T05:38:23.300Z,34.48
2019-03-03T05:38:56.300Z,33.45
2019-03-03T05:39:29.221Z,33.40
2019-03-03T05:40:02.659Z,33.08
2019-03-03T05:40:35.707Z,33.92
2019-03-03T05:41:08.703Z,33.45
2019-03-03T05:41:41.742Z,32.98
2019-03-03T05:42:14.737Z,34.00
2019-03-03T05:42:47.566Z,34.43
2019-03-03T05:43:21.180Z,34.60
2019-03-03T05:43:54.225Z,33.70
2019-03-03T05:44:27.229Z,33.85
2019-03-03T05:45:00.222Z,33.28
2019-03-03T05:45:33.286Z,34.58
2019-03-03T05:46:06.347Z,34.23
2019-03-03T05:46:39.335Z,34.90
2019-03-03T05:47:12.311Z,35.60
2019-03-03T05:47:45.368Z,33.95
2019-03-03T05:48:19.825Z,34.10
2019-03-03T05:48:52.893Z,34.23
2019-03-03T05:49:26.002Z,33.58
2019-03-03T05:49:58.867Z,33.92
2019-03-03T05:50:32.110Z,34.00
2019-03-03T05:51:06.062Z,35.35
2019-03-03T05:51:39.138Z,35.30
2019-03-03T05:52:12.010Z,34.38
2019-03-03T05:52:45.272Z,35.13
2019-03-03T05:53:18.315Z,34.03
2019-03-03T05:53:51.270Z,34.78
2019-03-03T05:54:24.353Z,34.43
2019-03-03T05:54:57.393Z,34.78
2019-03-03T05:55:30.446Z,34.80
2019-03-03T05:56:05.120Z,33.92
2019-03-03T05:56:38.098Z,35.13
2019-03-03T05:57:11.166Z,34.73
2019-03-03T05:57:44.088Z,34.23
2019-03-03T05:58:17.027Z,35.08
2019-03-03T05:58:49.951Z,34.43
2019-03-03T05:59:22.957Z,33.15
2019-03-03T05:59:55.810Z,34.78
2019-03-03T06:00:28.832Z,34.38
2019-03-03T06:01:01.797Z,33.78
2019-03-03T06:01:34.835Z,34.65
2019-03-03T06:02:08.654Z,33.55
2019-03-03T06:02:41.627Z,33.98
2019-03-03T06:03:14.709Z,33.83
2019-03-03T06:03:47.543Z,34.20
2019-03-03T06:04:20.404Z,34.18
2019-03-03T06:04:53.343Z,33.10
2019-03-03T06:05:27.435Z,33.33
2019-03-03T06:06:01.989Z,33.70
2019-03-03T06:06:34.889Z,33.70
2019-03-03T06:07:07.819Z,33.92
2019-03-03T06:07:40.904Z,33.63
2019-03-03T06:08:13.920Z,33.02
2019-03-03T06:08:46.823Z,32.50
2019-03-03T06:09:19.677Z,32.95
2019-03-03T06:09:52.538Z,33.48
2019-03-03T06:10:25.592Z,32.88
2019-03-03T06:10:58.538Z,32.58
2019-03-03T06:11:32.778Z,33.10
2019-03-03T06:12:05.739Z,32.93
2019-03-03T06:12:38.710Z,32.80
2019-03-03T06:13:12.821Z,32.73
2019-03-03T06:13:45.687Z,32.33
2019-03-03T06:14:18.725Z,32.40
2019-03-03T06:14:51.557Z,32.38
2019-03-03T06:15:24.595Z,32.10
2019-03-03T06:15:57.627Z,32.28
2019-03-03T06:16:30.879Z,32.00
2019-03-03T06:17:03.940Z,32.08
2019-03-03T06:17:36.883Z,32.45
2019-03-03T06:18:09.842Z,32.63
2019-03-03T06:18:42.974Z,32.50
2019-03-03T06:19:16.042Z,32.58
2019-03-03T06:19:48.961Z,31.73
2019-03-03T06:20:22.089Z,32.55
2019-03-03T06:20:55.046Z,32.08
2019-03-03T06:21:28.179Z,32.08
2019-03-03T06:22:01.138Z,31.30
2019-03-03T06:22:34.301Z,32.08
2019-03-03T06:23:07.347Z,32.20
2019-03-03T06:23:40.414Z,31.25
2019-03-03T06:24:14.109Z,32.40
2019-03-03T06:24:47.082Z,31.80
2019-03-03T06:25:20.136Z,32.05
2019-03-03T06:25:53.171Z,32.65
2019-03-03T06:26:26.205Z,32.00
2019-03-03T06:26:59.334Z,32.17
2019-03-03T06:27:32.465Z,31.85
2019-03-03T06:28:05.544Z,32.03
2019-03-03T06:28:38.382Z,31.50
2019-03-03T06:29:11.406Z,32.03
2019-03-03T06:29:44.335Z,31.87
2019-03-03T06:30:17.374Z,31.45
2019-03-03T06:30:50.395Z,32.03
2019-03-03T06:31:25.109Z,32.17
2019-03-03T06:31:58.261Z,30.65
2019-03-03T06:32:31.333Z,31.82
2019-03-03T06:33:04.432Z,31.93
2019-03-03T06:33:37.287Z,31.35
2019-03-03T06:34:10.152Z,32.03
2019-03-03T06:34:43.039Z,32.13
2019-03-03T06:35:16.177Z,30.57
2019-03-03T06:35:49.266Z,31.82
2019-03-03T06:36:22.341Z,31.90
2019-03-03T06:36:55.361Z,31.33
2019-03-03T06:37:29.496Z,31.77
2019-03-03T06:38:02.533Z,31.85
2019-03-03T06:38:35.389Z,31.57
2019-03-03T06:39:08.399Z,32.10
2019-03-03T06:39:41.376Z,31.10
2019-03-03T06:40:14.420Z,32.13
2019-03-03T06:40:47.438Z,30.82
2019-03-03T06:41:20.403Z,32.23
2019-03-03T06:41:53.399Z,32.58
2019-03-03T06:42:26.499Z,31.95
2019-03-03T06:42:59.289Z,32.25
2019-03-03T06:43:32.336Z,31.42
2019-03-03T06:44:05.369Z,31.17
2019-03-03T06:44:38.247Z,32.28
2019-03-03T06:45:12.611Z,30.57
2019-03-03T06:45:45.571Z,30.77
2019-03-03T06:46:18.627Z,31.60
2019-03-03T06:46:51.498Z,31.85
2019-03-03T06:47:24.530Z,30.75
2019-03-03T06:47:57.475Z,31.42
2019-03-03T06:48:31.513Z,30.97
2019-03-03T06:49:04.558Z,30.62
2019-03-03T06:49:37.410Z,30.90
2019-03-03T06:50:11.078Z,30.32
2019-03-03T06:50:44.530Z,29.67
2019-03-03T06:51:17.495Z,29.80
2019-03-03T06:51:50.539Z,30.00
2019-03-03T06:52:23.625Z,29.00
2019-03-03T06:52:56.675Z,29.25
2019-03-03T06:53:29.628Z,29.00
2019-03-03T06:54:02.570Z,29.12
2019-03-03T06:54:35.430Z,29.35
2019-03-03T06:55:08.783Z,29.18
2019-03-03T06:55:43.001Z,29.23
2019-03-03T06:56:16.059Z,29.42
2019-03-03T06:56:49.152Z,28.75
2019-03-03T06:57:22.211Z,28.55
2019-03-03T06:57:55.124Z,29.02
2019-03-03T06:58:28.209Z,28.83
2019-03-03T06:59:01.359Z,29.18
2019-03-03T06:59:34.255Z,27.87
2019-03-03T07:00:12.772Z,28.17
2019-03-03T07:00:45.846Z,27.77
2019-03-03T07:01:18.888Z,28.57
2019-03-03T07:01:51.940Z,29.20
2019-03-03T07:02:24.966Z,28.27
2019-03-03T07:02:58.789Z,28.50
2019-03-03T07:03:32.950Z,28.10
2019-03-03T07:04:05.995Z,28.10
2019-03-03T07:04:39.021Z,28.62
2019-03-03T07:05:12.050Z,28.17
2019-03-03T07:05:45.594Z,28.47
2019-03-03T07:06:18.511Z,28.98
2019-03-03T07:06:51.517Z,28.23
2019-03-03T07:07:24.470Z,28.20
2019-03-03T07:07:57.435Z,28.70
2019-03-03T07:08:30.506Z,28.73
2019-03-03T07:09:04.931Z,28.20
2019-03-03T07:09:39.339Z,28.57
2019-03-03T07:10:13.189Z,28.62
2019-03-03T07:10:46.218Z,28.12
2019-03-03T07:11:19.758Z,28.67
2019-03-03T07:11:52.609Z,28.30
2019-03-03T07:12:25.660Z,28.70
2019-03-03T07:12:59.630Z,28.80
2019-03-03T07:13:32.676Z,29.20
2019-03-03T07:14:05.736Z,28.75
2019-03-03T07:14:38.792Z,29.12
2019-03-03T07:15:14.555Z,28.95
2019-03-03T07:15:47.625Z,28.55
2019-03-03T07:16:20.721Z,28.42
2019-03-03T07:16:53.866Z,28.50
2019-03-03T07:17:26.840Z,28.67
2019-03-03T07:18:01.423Z,29.12
2019-03-03T07:18:34.372Z,29.50
2019-03-03T07:19:07.315Z,29.00
2019-03-03T07:19:41.174Z,28.55
2019-03-03T07:20:14.334Z,28.80
2019-03-03T07:20:47.359Z,28.67
2019-03-03T07:21:20.277Z,27.58
2019-03-03T07:21:53.178Z,28.10
2019-03-03T07:22:26.238Z,27.77
2019-03-03T07:22:59.198Z,28.27
2019-03-03T07:23:32.492Z,28.50
2019-03-03T07:24:05.512Z,27.90
2019-03-03T07:24:38.446Z,28.80
2019-03-03T07:25:11.872Z,27.62
2019-03-03T07:25:45.031Z,27.58
2019-03-03T07:26:18.085Z,28.00
2019-03-03T07:26:51.135Z,28.40
2019-03-03T07:27:24.080Z,27.48
2019-03-03T07:27:57.163Z,27.65
2019-03-03T07:28:30.257Z,27.80
2019-03-03T07:29:03.291Z,27.85
2019-03-03T07:29:36.225Z,27.48
2019-03-03T07:30:13.653Z,27.15
2019-03-03T07:30:46.619Z,27.45
2019-03-03T07:31:19.795Z,27.85
2019-03-03T07:31:53.285Z,27.45
2019-03-03T07:32:26.220Z,27.50
2019-03-03T07:33:30.912Z,27.48
2019-03-03T07:34:04.077Z,27.17
2019-03-03T07:34:37.013Z,27.02
2019-03-03T07:35:09.963Z,26.70
2019-03-03T07:35:43.456Z,27.60
2019-03-03T07:36:16.391Z,27.20
2019-03-03T07:36:49.520Z,26.90
2019-03-03T07:37:22.490Z,27.00
2019-03-03T07:37:55.471Z,26.70
2019-03-03T07:38:28.548Z,26.77
2019-03-03T07:39:02.190Z,26.80
2019-03-03T07:39:37.063Z,27.20
2019-03-03T07:40:12.270Z,26.80
2019-03-03T07:40:46.478Z,26.95
2019-03-03T07:41:19.494Z,27.13
2019-03-03T07:41:52.331Z,26.80
2019-03-03T07:42:25.301Z,26.90
2019-03-03T07:42:58.242Z,27.10
2019-03-03T07:43:31.067Z,26.97
2019-03-03T07:44:04.518Z,26.35
2019-03-03T07:44:37.534Z,27.13
2019-03-03T07:45:10.936Z,27.00
2019-03-03T07:45:43.925Z,27.17
2019-03-03T07:46:17.050Z,27.20
2019-03-03T07:46:50.019Z,27.10
2019-03-03T07:47:22.976Z,27.67
2019-03-03T07:47:55.901Z,27.00
2019-03-03T07:48:28.753Z,26.85
2019-03-03T07:49:01.736Z,26.85
2019-03-03T07:49:34.735Z,26.80
2019-03-03T07:50:07.913Z,26.77
2019-03-03T07:50:40.959Z,26.60
2019-03-03T07:51:13.952Z,26.60
2019-03-03T07:51:47.214Z,27.25
2019-03-03T07:52:20.174Z,27.17
2019-03-03T07:52:53.245Z,27.02
2019-03-03T07:53:26.210Z,27.02
2019-03-03T07:53:59.114Z,27.37
2019-03-03T07:54:32.181Z,27.10
2019-03-03T07:55:05.993Z,26.87
2019-03-03T07:55:39.126Z,26.85
2019-03-03T07:56:12.229Z,26.77
2019-03-03T07:56:45.283Z,26.70
2019-03-03T07:57:18.528Z,27.13
2019-03-03T07:57:51.583Z,26.40
2019-03-03T07:58:26.145Z,26.68
2019-03-03T07:58:59.215Z,26.97
2019-03-03T07:59:32.582Z,26.48
2019-03-03T08:00:07.825Z,27.05
2019-03-03T08:00:40.940Z,26.25
2019-03-03T08:01:14.099Z,26.70
2019-03-03T08:01:47.640Z,26.80
2019-03-03T08:02:20.839Z,26.75
2019-03-03T08:02:53.742Z,26.33
2019-03-03T08:03:26.872Z,26.55
2019-03-03T08:03:59.777Z,26.12
2019-03-03T08:04:33.151Z,26.42
2019-03-03T08:05:06.828Z,26.12
2019-03-03T08:05:39.882Z,26.30
2019-03-03T08:06:12.872Z,25.77
2019-03-03T08:06:47.815Z,25.82
2019-03-03T08:07:20.987Z,26.05
2019-03-03T08:07:53.902Z,26.35
2019-03-03T08:08:26.852Z,25.40
2019-03-03T08:08:59.747Z,25.62
2019-03-03T08:09:32.864Z,25.88
2019-03-03T08:10:06.693Z,25.65
2019-03-03T08:10:39.630Z,25.65